createdAt,value
2024-04-30T00:00:24.335Z,24.97
2024-04-30T00:01:24.378Z,24.96
2024-04-30T00:02:24.349Z,24.96
2024-04-30T00:03:24.362Z,24.98
2024-04-30T00:04:24.376Z,24.98
2024-04-30T00:05:24.390Z,24.98
2024-04-30T00:06:24.348Z,24.97
2024-04-30T00:07:24.363Z,24.97
2024-04-30T00:08:24.339Z,24.98
2024-04-30T00:09:24.348Z,24.96
2024-04-30T00:10:24.388Z,24.96
2024-04-30T00:11:24.386Z,24.96
2024-04-30T00:12:24.401Z,24.94
2024-04-30T00:13:24.522Z,24.96
2024-04-30T00:14:24.497Z,24.98
2024-04-30T00:15:24.518Z,24.95
2024-04-30T00:16:24.654Z,24.95
2024-04-30T00:17:24.727Z,24.95
2024-04-30T00:18:24.720Z,24.96
2024-04-30T00:19:24.786Z,24.94
2024-04-30T00:20:24.845Z,24.94
2024-04-30T00:21:24.806Z,24.93
2024-04-30T00:22:24.939Z,24.95
2024-04-30T00:23:24.919Z,24.94
2024-04-30T00:24:24.984Z,24.92
2024-04-30T00:25:25.014Z,24.91
2024-04-30T00:26:25.116Z,24.92
2024-04-30T00:27:25.069Z,24.94
2024-04-30T00:28:25.412Z,24.89
2024-04-30T00:29:25.177Z,24.92
2024-04-30T00:30:25.226Z,24.91
2024-04-30T00:31:25.288Z,24.91
2024-04-30T00:32:25.430Z,24.91
2024-04-30T00:33:25.379Z,24.91
2024-04-30T00:34:25.381Z,24.92
2024-04-30T00:35:25.396Z,24.89
2024-04-30T00:36:25.449Z,24.67
2024-04-30T00:37:25.508Z,24.72
2024-04-30T00:38:25.546Z,24.84
2024-04-30T00:39:25.566Z,24.88
2024-04-30T00:40:25.670Z,24.90
2024-04-30T00:41:25.655Z,24.79
2024-04-30T00:42:25.699Z,24.89
2024-04-30T00:43:25.792Z,24.90
2024-04-30T00:44:25.783Z,24.89
2024-04-30T00:45:25.810Z,24.82
2024-04-30T00:46:25.879Z,24.85
2024-04-30T00:47:26.010Z,24.88
2024-04-30T00:48:27.322Z,24.87
2024-04-30T00:49:26.025Z,24.87
2024-04-30T00:50:26.019Z,24.86
2024-04-30T00:51:26.059Z,24.86
2024-04-30T00:52:26.146Z,24.86
2024-04-30T00:53:26.182Z,24.82
2024-04-30T00:54:26.215Z,24.85
2024-04-30T00:55:26.339Z,24.85
2024-04-30T00:56:26.267Z,24.86
2024-04-30T00:57:26.309Z,24.81
2024-04-30T00:58:26.865Z,24.84
2024-04-30T00:59:26.414Z,24.83
2024-04-30T01:00:26.450Z,24.82
2024-04-30T01:01:26.550Z,24.82
2024-04-30T01:02:26.569Z,24.81
2024-04-30T01:03:26.622Z,24.82
2024-04-30T01:04:26.673Z,24.79
2024-04-30T01:05:26.628Z,24.79
2024-04-30T01:06:26.683Z,24.78
2024-04-30T01:07:26.814Z,24.78
2024-04-30T01:08:26.838Z,24.79
2024-04-30T01:09:26.776Z,24.78
2024-04-30T01:10:26.849Z,24.75
2024-04-30T01:11:26.940Z,24.76
2024-04-30T01:12:26.922Z,24.76
2024-04-30T01:13:27.007Z,24.75
2024-04-30T01:14:27.012Z,24.72
2024-04-30T01:15:27.107Z,24.66
2024-04-30T01:16:27.130Z,24.72
2024-04-30T01:17:27.252Z,24.72
2024-04-30T01:18:27.363Z,24.66
2024-04-30T01:19:27.252Z,24.64
2024-04-30T01:20:27.290Z,24.60
2024-04-30T01:21:27.323Z,24.72
2024-04-30T01:22:27.438Z,24.71
2024-04-30T01:23:27.411Z,24.71
2024-04-30T01:24:27.450Z,24.72
2024-04-30T01:25:27.538Z,24.71
2024-04-30T01:26:27.526Z,24.73
2024-04-30T01:27:27.571Z,24.73
2024-04-30T01:28:27.898Z,24.70
2024-04-30T01:29:27.668Z,24.72
2024-04-30T01:30:27.710Z,24.69
2024-04-30T01:31:27.816Z,24.70
2024-04-30T01:32:27.861Z,24.71
2024-04-30T01:33:27.901Z,24.71
2024-04-30T01:34:27.926Z,24.71
2024-04-30T01:35:27.910Z,24.69
2024-04-30T01:36:27.947Z,24.71
2024-04-30T01:37:28.111Z,24.71
2024-04-30T01:38:28.025Z,24.70
2024-04-30T01:39:28.068Z,24.69
2024-04-30T01:40:28.146Z,24.70
2024-04-30T01:41:28.199Z,24.70
2024-04-30T01:42:28.196Z,24.70
2024-04-30T01:43:28.348Z,24.68
2024-04-30T01:44:28.288Z,24.69
2024-04-30T01:45:28.321Z,24.71
2024-04-30T01:46:28.388Z,24.70
2024-04-30T01:47:28.507Z,24.72
2024-04-30T01:48:28.476Z,24.69
2024-04-30T01:49:28.602Z,24.69
2024-04-30T01:50:28.556Z,24.70
2024-04-30T01:51:28.594Z,24.70
2024-04-30T01:52:28.696Z,24.69
2024-04-30T01:53:28.841Z,24.71
2024-04-30T01:54:28.689Z,24.68
2024-04-30T01:55:28.759Z,24.66
2024-04-30T01:56:28.799Z,24.69
2024-04-30T01:57:28.846Z,24.71
2024-04-30T01:58:28.916Z,24.70
2024-04-30T01:59:28.923Z,24.71
2024-04-30T02:00:28.977Z,24.72
2024-04-30T02:01:29.045Z,24.71
2024-04-30T02:02:29.125Z,24.72
2024-04-30T02:03:29.116Z,24.71
2024-04-30T02:04:35.901Z,24.72
2024-04-30T02:05:30.178Z,24.71
2024-04-30T02:06:29.134Z,24.71
2024-04-30T02:07:29.154Z,24.73
2024-04-30T02:08:29.145Z,24.73
2024-04-30T02:09:29.130Z,24.70
2024-04-30T02:10:29.195Z,24.71
2024-04-30T02:11:29.209Z,24.71
2024-04-30T02:12:29.171Z,24.72
2024-04-30T02:13:29.532Z,24.75
2024-04-30T02:14:29.132Z,24.74
2024-04-30T02:15:29.165Z,24.74
2024-04-30T02:16:29.222Z,24.74
2024-04-30T02:17:29.275Z,24.73
2024-04-30T02:18:29.364Z,24.74
2024-04-30T02:19:29.290Z,24.75
2024-04-30T02:20:29.230Z,24.76
2024-04-30T02:21:29.246Z,24.76
2024-04-30T02:22:29.343Z,24.76
2024-04-30T02:23:29.353Z,24.77
2024-04-30T02:24:29.360Z,24.77
2024-04-30T02:25:29.473Z,24.78
2024-04-30T02:26:29.462Z,24.78
2024-04-30T02:27:29.502Z,24.80
2024-04-30T02:28:30.024Z,24.80
2024-04-30T02:29:29.583Z,24.81
2024-04-30T02:30:29.662Z,24.82
2024-04-30T02:31:29.860Z,24.82
2024-04-30T02:32:29.775Z,24.82
2024-04-30T02:33:29.782Z,24.83
2024-04-30T02:34:29.947Z,24.86
2024-04-30T02:35:29.916Z,24.82
2024-04-30T02:36:29.920Z,24.84
2024-04-30T02:37:30.020Z,24.85
2024-04-30T02:38:30.424Z,24.86
2024-04-30T02:39:30.078Z,24.86
2024-04-30T02:40:30.173Z,24.85
2024-04-30T02:41:30.171Z,24.86
2024-04-30T02:42:30.239Z,24.87
2024-04-30T02:43:30.326Z,24.87
2024-04-30T02:44:30.341Z,24.87
2024-04-30T02:45:30.388Z,24.85
2024-04-30T02:46:30.566Z,24.87
2024-04-30T02:47:30.615Z,24.88
2024-04-30T02:48:30.922Z,24.88
2024-04-30T02:49:30.679Z,24.87
2024-04-30T02:50:30.609Z,24.89
2024-04-30T02:51:30.649Z,24.88
2024-04-30T02:52:30.747Z,24.90
2024-04-30T02:53:30.891Z,24.89
2024-04-30T02:54:30.815Z,24.88
2024-04-30T02:55:30.923Z,24.89
2024-04-30T02:56:30.925Z,24.88
2024-04-30T02:57:30.949Z,24.90
2024-04-30T02:58:31.114Z,24.88
2024-04-30T02:59:31.066Z,24.92
2024-04-30T03:00:31.146Z,24.93
2024-04-30T03:01:31.218Z,24.94
2024-04-30T03:02:31.238Z,24.93
2024-04-30T03:03:31.338Z,24.92
2024-04-30T03:04:31.340Z,24.93
2024-04-30T03:05:31.446Z,24.94
2024-04-30T03:06:31.390Z,24.93
2024-04-30T03:07:31.502Z,24.91
2024-04-30T03:08:31.505Z,24.92
2024-04-30T03:09:31.552Z,24.93
2024-04-30T03:10:31.735Z,24.92
2024-04-30T03:11:31.727Z,24.90
2024-04-30T03:12:31.715Z,24.90
2024-04-30T03:13:31.899Z,24.93
2024-04-30T03:14:31.775Z,24.96
2024-04-30T03:15:31.824Z,24.95
2024-04-30T03:16:31.915Z,24.95
2024-04-30T03:17:32.033Z,24.95
2024-04-30T03:18:31.982Z,24.95
2024-04-30T03:19:32.124Z,24.95
2024-04-30T03:20:32.072Z,24.94
2024-04-30T03:21:32.122Z,24.94
2024-04-30T03:22:32.251Z,24.94
2024-04-30T03:23:32.222Z,24.95
2024-04-30T03:24:32.275Z,24.94
2024-04-30T03:25:32.419Z,24.94
2024-04-30T03:26:32.441Z,24.95
2024-04-30T03:27:32.417Z,24.95
2024-04-30T03:28:32.898Z,24.96
2024-04-30T03:29:32.529Z,24.97
2024-04-30T03:30:32.664Z,24.97
2024-04-30T03:31:32.708Z,24.98
2024-04-30T03:32:32.783Z,24.97
2024-04-30T03:33:32.974Z,24.98
2024-04-30T03:34:32.808Z,24.96
2024-04-30T03:35:32.855Z,24.97
2024-04-30T03:36:32.901Z,24.98
2024-04-30T03:37:33.017Z,24.96
2024-04-30T03:38:32.982Z,24.98
2024-04-30T03:39:33.024Z,24.98
2024-04-30T03:40:33.113Z,24.98
2024-04-30T03:41:33.115Z,25.00
2024-04-30T03:42:33.180Z,24.99
2024-04-30T03:43:33.324Z,25.00
2024-04-30T03:44:33.261Z,25.00
2024-04-30T03:45:33.336Z,25.00
2024-04-30T03:46:33.497Z,25.01
2024-04-30T03:47:33.513Z,25.00
2024-04-30T03:48:33.934Z,25.01
2024-04-30T03:49:33.636Z,25.00
2024-04-30T03:50:33.594Z,25.01
2024-04-30T03:51:33.630Z,24.99
2024-04-30T03:52:33.848Z,25.02
2024-04-30T03:53:33.695Z,25.00
2024-04-30T03:54:33.776Z,24.99
2024-04-30T03:55:34.015Z,25.01
2024-04-30T03:56:33.899Z,24.99
2024-04-30T03:57:33.892Z,25.00
2024-04-30T03:58:34.424Z,24.99
2024-04-30T03:59:34.013Z,24.99
2024-04-30T04:00:34.092Z,25.01
2024-04-30T04:01:34.153Z,25.03
2024-04-30T04:02:34.175Z,25.03
2024-04-30T04:03:34.189Z,25.00
2024-04-30T04:04:34.326Z,25.02
2024-04-30T04:05:34.312Z,25.03
2024-04-30T04:06:34.352Z,25.01
2024-04-30T04:07:34.442Z,25.04
2024-04-30T04:08:34.430Z,25.03
2024-04-30T04:09:34.459Z,25.03
2024-04-30T04:10:34.555Z,25.02
2024-04-30T04:11:34.640Z,25.04
2024-04-30T04:12:34.620Z,25.04
2024-04-30T04:13:34.737Z,25.03
2024-04-30T04:14:34.736Z,25.03
2024-04-30T04:15:34.810Z,25.06
2024-04-30T04:16:42.539Z,25.06
2024-04-30T04:17:42.622Z,25.07
2024-04-30T04:18:42.548Z,25.09
2024-04-30T04:19:42.607Z,25.08
2024-04-30T04:20:42.548Z,25.09
2024-04-30T04:21:42.576Z,25.08
2024-04-30T04:22:42.602Z,25.07
2024-04-30T04:23:42.604Z,25.07
2024-04-30T04:24:42.551Z,25.07
2024-04-30T04:25:42.627Z,25.05
2024-04-30T04:26:42.569Z,25.07
2024-04-30T04:27:42.571Z,25.07
2024-04-30T04:28:42.684Z,25.05
2024-04-30T04:29:42.575Z,25.07
2024-04-30T04:30:42.574Z,25.05
2024-04-30T04:31:50.319Z,25.09
2024-04-30T04:32:50.293Z,25.07
2024-04-30T04:33:50.324Z,25.06
2024-04-30T04:34:50.316Z,25.04
2024-04-30T04:35:50.338Z,25.04
2024-04-30T04:36:50.328Z,25.04
2024-04-30T04:37:50.369Z,25.04
2024-04-30T04:38:50.355Z,25.04
2024-04-30T04:39:50.404Z,25.05
2024-04-30T04:40:50.402Z,25.06
2024-04-30T04:41:50.363Z,25.07
2024-04-30T04:42:50.309Z,25.07
2024-04-30T04:43:50.393Z,25.07
2024-04-30T04:44:50.349Z,25.04
2024-04-30T04:45:50.347Z,25.05
2024-04-30T04:46:50.342Z,25.05
2024-04-30T04:47:50.487Z,25.04
2024-04-30T04:48:50.321Z,25.04
2024-04-30T04:49:50.357Z,25.05
2024-04-30T04:50:50.314Z,25.04
2024-04-30T04:51:50.324Z,25.06
2024-04-30T04:52:50.329Z,25.03
2024-04-30T04:53:50.353Z,25.03
2024-04-30T04:54:50.310Z,25.05
2024-04-30T04:55:50.399Z,25.04
2024-04-30T04:56:50.352Z,25.03
2024-04-30T04:57:50.336Z,25.02
2024-04-30T04:58:50.351Z,25.04
2024-04-30T04:59:50.325Z,25.04
2024-04-30T05:00:50.433Z,25.04
2024-04-30T05:01:50.487Z,25.04
2024-04-30T05:02:50.373Z,25.03
2024-04-30T05:03:50.497Z,25.03
2024-04-30T05:04:50.381Z,25.02
2024-04-30T05:05:50.359Z,25.04
2024-04-30T05:06:51.503Z,25.02
2024-04-30T05:07:50.352Z,25.02
2024-04-30T05:08:50.396Z,25.03
2024-04-30T05:09:50.432Z,25.01
2024-04-30T05:10:50.553Z,24.99
2024-04-30T05:11:50.514Z,24.98
2024-04-30T05:12:50.547Z,24.99
2024-04-30T05:13:50.610Z,25.00
2024-04-30T05:14:53.472Z,24.98
2024-04-30T05:15:50.647Z,25.01
2024-04-30T05:16:50.740Z,25.00
2024-04-30T05:17:50.780Z,24.97
2024-04-30T05:18:50.682Z,24.98
2024-04-30T05:19:50.670Z,24.97
2024-04-30T05:20:50.650Z,24.99
2024-04-30T05:21:50.645Z,24.99
2024-04-30T05:22:50.668Z,24.99
2024-04-30T05:23:50.662Z,24.97
2024-04-30T05:24:50.670Z,24.98
2024-04-30T05:25:50.682Z,24.97
2024-04-30T05:26:50.659Z,24.97
2024-04-30T05:27:50.706Z,24.96
2024-04-30T05:28:50.707Z,24.97
2024-04-30T05:29:51.408Z,24.97
2024-04-30T05:30:50.664Z,24.96
2024-04-30T05:31:50.672Z,24.94
2024-04-30T05:32:50.708Z,24.96
2024-04-30T05:33:50.711Z,24.95
2024-04-30T05:34:50.743Z,24.95
2024-04-30T05:35:50.798Z,24.95
2024-04-30T05:36:50.810Z,24.95
2024-04-30T05:37:50.866Z,24.93
2024-04-30T05:38:50.901Z,24.92
2024-04-30T05:39:50.942Z,24.92
2024-04-30T05:40:50.987Z,24.91
2024-04-30T05:41:51.040Z,24.90
2024-04-30T05:42:51.058Z,24.89
2024-04-30T05:43:51.105Z,24.89
2024-04-30T05:44:51.126Z,24.87
2024-04-30T05:45:51.171Z,25.02
2024-04-30T05:46:51.263Z,25.45
2024-04-30T05:47:51.248Z,25.62
2024-04-30T05:48:51.305Z,25.55
2024-04-30T05:49:51.357Z,25.27
2024-04-30T05:50:51.387Z,25.18
2024-04-30T05:51:51.406Z,25.34
2024-04-30T05:52:51.425Z,25.79
2024-04-30T05:53:56.234Z,26.05
2024-04-30T05:54:51.465Z,26.46
2024-04-30T05:55:51.472Z,26.47
2024-04-30T05:56:52.406Z,26.53
2024-04-30T05:57:52.383Z,27.03
2024-04-30T05:58:51.463Z,27.26
2024-04-30T05:59:51.474Z,27.16
2024-04-30T06:00:51.522Z,27.38
2024-04-30T06:01:51.567Z,27.58
2024-04-30T06:02:51.486Z,27.94
2024-04-30T06:03:51.962Z,28.32
2024-04-30T06:04:51.544Z,28.52
2024-04-30T06:05:51.469Z,29.07
2024-04-30T06:06:51.482Z,29.59
2024-04-30T06:07:51.482Z,29.95
2024-04-30T06:08:51.499Z,30.21
2024-04-30T06:09:51.501Z,30.84
2024-04-30T06:10:51.767Z,31.05
2024-04-30T06:11:51.655Z,31.07
2024-04-30T06:12:51.722Z,31.11
2024-04-30T06:13:51.764Z,31.39
2024-04-30T06:14:51.841Z,31.58
2024-04-30T06:15:51.948Z,31.98
2024-04-30T06:16:51.999Z,32.09
2024-04-30T06:17:52.113Z,31.67
2024-04-30T06:18:52.135Z,31.60
2024-04-30T06:19:52.192Z,31.58
2024-04-30T06:20:52.232Z,31.70
2024-04-30T06:21:52.309Z,31.54
2024-04-30T06:22:52.377Z,31.76
2024-04-30T06:23:52.480Z,31.62
2024-04-30T06:24:52.484Z,31.92
2024-04-30T06:25:52.564Z,32.32
2024-04-30T06:26:52.582Z,32.31
2024-04-30T06:27:52.657Z,32.10
2024-04-30T06:28:53.020Z,32.05
2024-04-30T06:29:52.774Z,32.16
2024-04-30T06:30:52.816Z,32.31
2024-04-30T06:31:52.851Z,32.10
2024-04-30T06:32:52.944Z,32.12
2024-04-30T06:33:53.665Z,32.13
2024-04-30T06:34:53.094Z,32.15
2024-04-30T06:35:53.046Z,32.09
2024-04-30T06:36:53.088Z,30.48
2024-04-30T06:37:53.172Z,31.59
2024-04-30T06:38:53.199Z,31.70
2024-04-30T06:39:53.316Z,31.55
2024-04-30T06:40:53.450Z,31.67
2024-04-30T06:41:53.374Z,31.67
2024-04-30T06:42:53.467Z,31.52
2024-04-30T06:43:53.505Z,31.48
2024-04-30T06:44:53.600Z,31.56
2024-04-30T06:45:53.587Z,31.82
2024-04-30T06:46:53.634Z,31.59
2024-04-30T06:47:53.786Z,31.65
2024-04-30T06:48:53.768Z,31.68
2024-04-30T06:49:53.840Z,31.71
2024-04-30T06:50:53.832Z,31.79
2024-04-30T06:51:53.866Z,32.44
2024-04-30T06:52:53.958Z,31.93
2024-04-30T06:53:54.399Z,31.64
2024-04-30T06:54:53.997Z,29.26
2024-04-30T06:55:56.370Z,30.41
2024-04-30T06:56:54.204Z,30.55
2024-04-30T06:57:54.239Z,29.06
2024-04-30T06:58:54.334Z,29.06
2024-04-30T06:59:54.341Z,29.40
2024-04-30T07:00:54.407Z,29.67
2024-04-30T07:01:54.437Z,29.84
2024-04-30T07:02:54.503Z,30.33
2024-04-30T07:03:54.950Z,30.25
2024-04-30T07:04:54.634Z,30.42
2024-04-30T07:05:54.591Z,30.42
2024-04-30T07:06:54.668Z,30.64
2024-04-30T07:07:56.099Z,30.65
2024-04-30T07:08:54.938Z,30.65
2024-04-30T07:09:54.736Z,30.73
2024-04-30T07:10:54.872Z,30.74
2024-04-30T07:11:54.804Z,30.91
2024-04-30T07:12:54.819Z,30.78
2024-04-30T07:13:54.815Z,30.74
2024-04-30T07:14:54.840Z,30.87
2024-04-30T07:15:54.875Z,31.03
2024-04-30T07:17:02.539Z,30.94
2024-04-30T07:17:56.017Z,30.95
2024-04-30T07:18:54.929Z,30.96
2024-04-30T07:19:54.996Z,30.96
2024-04-30T07:20:54.933Z,31.08
2024-04-30T07:21:54.929Z,31.18
2024-04-30T07:22:54.988Z,31.17
2024-04-30T07:23:54.972Z,31.20
2024-04-30T07:24:54.966Z,31.29
2024-04-30T07:25:54.987Z,31.31
2024-04-30T07:26:55.033Z,31.63
2024-04-30T07:27:55.127Z,31.91
2024-04-30T07:28:55.116Z,31.88
2024-04-30T07:29:55.158Z,31.85
2024-04-30T07:30:55.176Z,31.75
2024-04-30T07:31:55.289Z,31.72
2024-04-30T07:32:55.336Z,31.67
2024-04-30T07:33:55.472Z,31.66
2024-04-30T07:34:55.344Z,31.74
2024-04-30T07:35:55.379Z,31.71
2024-04-30T07:36:55.421Z,31.79
2024-04-30T07:37:55.480Z,31.84
2024-04-30T07:38:55.558Z,31.93
2024-04-30T07:39:55.608Z,31.92
2024-04-30T07:40:55.677Z,32.10
2024-04-30T07:41:55.771Z,32.20
2024-04-30T07:42:55.846Z,32.15
2024-04-30T07:43:55.948Z,32.05
2024-04-30T07:44:55.928Z,32.04
2024-04-30T07:45:56.001Z,32.13
2024-04-30T07:46:56.269Z,32.09
2024-04-30T07:47:56.164Z,31.96
2024-04-30T07:48:56.481Z,31.66
2024-04-30T07:49:56.229Z,29.76
2024-04-30T07:50:56.309Z,31.06
2024-04-30T07:51:56.377Z,31.35
2024-04-30T07:52:56.434Z,31.35
2024-04-30T07:53:56.977Z,31.18
2024-04-30T07:54:59.709Z,31.28
2024-04-30T07:55:56.587Z,31.02
2024-04-30T07:56:56.560Z,30.96
2024-04-30T07:57:56.578Z,31.35
2024-04-30T07:58:56.581Z,33.12
2024-04-30T07:59:56.574Z,32.32
2024-04-30T08:00:56.581Z,32.82
2024-04-30T08:01:56.681Z,32.73
2024-04-30T08:02:56.808Z,32.21
2024-04-30T08:03:56.671Z,33.03
2024-04-30T08:04:56.602Z,32.13
2024-04-30T08:06:01.219Z,33.04
2024-04-30T08:06:57.602Z,33.68
2024-04-30T08:07:56.574Z,34.22
2024-04-30T08:08:56.577Z,34.17
2024-04-30T08:09:56.601Z,33.88
2024-04-30T08:10:56.620Z,33.75
2024-04-30T08:11:56.613Z,33.42
2024-04-30T08:12:56.609Z,33.46
2024-04-30T08:13:56.664Z,32.64
2024-04-30T08:14:56.616Z,32.45
2024-04-30T08:15:56.607Z,33.08
2024-04-30T08:16:56.787Z,32.64
2024-04-30T08:17:56.685Z,32.82
2024-04-30T08:19:01.817Z,32.63
2024-04-30T08:20:03.132Z,31.96
2024-04-30T08:20:57.645Z,31.72
2024-04-30T08:21:56.656Z,31.64
2024-04-30T08:22:56.624Z,31.67
2024-04-30T08:23:56.665Z,31.92
2024-04-30T08:24:56.636Z,31.94
2024-04-30T08:25:56.628Z,31.56
2024-04-30T08:26:56.635Z,31.08
2024-04-30T08:27:56.633Z,30.84
2024-04-30T08:28:56.656Z,30.69
2024-04-30T08:29:56.662Z,30.21
2024-04-30T08:30:56.619Z,30.22
2024-04-30T08:31:56.650Z,30.17
2024-04-30T08:32:56.734Z,30.30
2024-04-30T08:33:56.715Z,30.32
2024-04-30T08:34:56.647Z,30.38
2024-04-30T08:35:56.638Z,30.04
2024-04-30T08:36:56.699Z,30.36
2024-04-30T08:38:00.976Z,30.00
2024-04-30T08:38:57.676Z,29.78
2024-04-30T08:39:56.668Z,29.80
2024-04-30T08:40:56.686Z,30.15
2024-04-30T08:41:56.707Z,29.81
2024-04-30T08:42:56.669Z,28.53
2024-04-30T08:43:56.660Z,27.68
2024-04-30T08:44:59.331Z,26.45
2024-04-30T08:45:56.667Z,26.67
2024-04-30T08:46:56.747Z,25.55
2024-04-30T08:47:56.766Z,26.17
2024-04-30T08:48:56.693Z,25.30
2024-04-30T08:50:01.347Z,26.35
2024-04-30T08:50:57.807Z,26.60
2024-04-30T08:51:57.692Z,27.92
2024-04-30T08:52:56.690Z,27.61
2024-04-30T08:53:56.990Z,26.99
2024-04-30T08:54:56.701Z,27.45
2024-04-30T08:55:56.678Z,27.80
2024-04-30T08:56:56.719Z,28.53
2024-04-30T08:57:56.722Z,28.86
2024-04-30T08:58:56.694Z,29.08
2024-04-30T08:59:56.719Z,29.02
2024-04-30T09:00:56.737Z,29.75
2024-04-30T09:01:56.732Z,28.24
2024-04-30T09:02:57.894Z,28.28
2024-04-30T09:03:56.883Z,29.57
2024-04-30T09:04:56.787Z,29.81
2024-04-30T09:05:56.751Z,29.69
2024-04-30T09:06:56.747Z,29.30
2024-04-30T09:07:56.722Z,28.08
2024-04-30T09:08:57.037Z,28.67
2024-04-30T09:09:56.729Z,28.26
2024-04-30T09:10:56.858Z,28.93
2024-04-30T09:11:56.794Z,28.04
2024-04-30T09:12:56.726Z,29.78
2024-04-30T09:13:57.005Z,30.17
2024-04-30T09:14:56.765Z,30.43
2024-04-30T09:15:56.742Z,30.22
2024-04-30T09:16:56.959Z,29.76
2024-04-30T09:17:56.809Z,29.31
2024-04-30T09:18:56.744Z,28.98
2024-04-30T09:19:56.756Z,29.84
2024-04-30T09:20:59.243Z,28.89
2024-04-30T09:21:57.788Z,28.84
2024-04-30T09:22:56.772Z,29.11
2024-04-30T09:23:56.746Z,29.73
2024-04-30T09:24:56.736Z,30.33
2024-04-30T09:25:56.786Z,30.92
2024-04-30T09:26:56.762Z,28.61
2024-04-30T09:27:56.747Z,30.33
2024-04-30T09:28:56.767Z,30.76
2024-04-30T09:29:56.769Z,30.68
2024-04-30T09:30:56.771Z,30.16
2024-04-30T09:31:56.783Z,30.12
2024-04-30T09:32:56.841Z,30.43
2024-04-30T09:33:56.995Z,29.25
2024-04-30T09:34:56.787Z,28.44
2024-04-30T09:35:56.828Z,29.01
2024-04-30T09:36:56.780Z,28.74
2024-04-30T09:37:56.827Z,29.04
2024-04-30T09:38:56.787Z,28.64
2024-04-30T09:39:56.778Z,29.10
2024-04-30T09:40:56.783Z,29.19
2024-04-30T09:41:56.804Z,28.96
2024-04-30T09:42:56.816Z,28.97
2024-04-30T09:43:56.817Z,28.80
2024-04-30T09:44:57.037Z,29.23
2024-04-30T09:45:56.883Z,29.08
2024-04-30T09:46:56.950Z,29.24
2024-04-30T09:47:56.857Z,29.23
2024-04-30T09:48:56.811Z,29.07
2024-04-30T09:49:57.039Z,29.05
2024-04-30T09:50:56.838Z,28.24
2024-04-30T09:51:56.825Z,28.28
2024-04-30T09:52:56.824Z,28.36
2024-04-30T09:53:56.890Z,27.07
2024-04-30T09:54:56.908Z,28.12
2024-04-30T09:55:56.970Z,27.86
2024-04-30T09:56:56.979Z,27.65
2024-04-30T09:57:57.033Z,27.66
2024-04-30T09:58:57.062Z,26.69
2024-04-30T09:59:57.187Z,26.25
2024-04-30T10:00:57.191Z,25.76
2024-04-30T10:01:57.346Z,25.73
2024-04-30T10:02:57.319Z,25.35
2024-04-30T10:03:57.371Z,25.45
2024-04-30T10:04:57.612Z,25.34
2024-04-30T10:05:57.474Z,25.19
2024-04-30T10:06:57.541Z,24.75
2024-04-30T10:07:57.572Z,24.82
2024-04-30T10:08:57.667Z,24.63
2024-04-30T10:09:58.023Z,24.75
2024-04-30T10:10:57.793Z,24.81
2024-04-30T10:11:57.872Z,24.56
2024-04-30T10:12:57.944Z,24.61
2024-04-30T10:13:57.998Z,24.64
2024-04-30T10:14:58.513Z,24.54
2024-04-30T10:15:58.180Z,24.52
2024-04-30T10:16:58.278Z,24.45
2024-04-30T10:17:58.231Z,24.39
2024-04-30T10:18:58.245Z,24.33
2024-04-30T10:19:58.543Z,24.76
2024-04-30T10:20:58.319Z,24.39
2024-04-30T10:21:58.387Z,24.55
2024-04-30T10:22:58.342Z,24.82
2024-04-30T10:23:58.382Z,24.87
2024-04-30T10:24:58.403Z,24.76
2024-04-30T10:25:58.484Z,24.62
2024-04-30T10:26:58.420Z,24.44
2024-04-30T10:27:58.479Z,24.30
2024-04-30T10:28:58.713Z,24.34
2024-04-30T10:29:58.459Z,24.34
2024-04-30T10:30:58.507Z,24.41
2024-04-30T10:31:59.452Z,24.48
2024-04-30T10:32:58.520Z,24.30
2024-04-30T10:33:58.552Z,24.24
2024-04-30T10:34:58.573Z,24.28
2024-04-30T10:35:58.594Z,24.23
2024-04-30T10:36:59.495Z,24.20
2024-04-30T10:38:01.573Z,24.34
2024-04-30T10:38:58.744Z,24.32
2024-04-30T10:39:59.080Z,24.36
2024-04-30T10:40:58.745Z,24.30
2024-04-30T10:41:58.712Z,24.12
2024-04-30T10:42:58.749Z,24.02
2024-04-30T10:44:00.508Z,24.05
2024-04-30T10:44:59.047Z,23.92
2024-04-30T10:45:58.760Z,23.96
2024-04-30T10:46:58.742Z,23.83
2024-04-30T10:47:58.951Z,24.05
2024-04-30T10:48:58.755Z,24.09
2024-04-30T10:50:11.753Z,23.99
2024-04-30T10:50:59.760Z,23.88
2024-04-30T10:51:58.738Z,23.80
2024-04-30T10:52:58.743Z,23.92
2024-04-30T10:53:58.792Z,23.76
2024-04-30T10:54:59.046Z,23.79
2024-04-30T10:56:00.684Z,23.64
2024-04-30T10:56:58.787Z,23.75
2024-04-30T10:57:58.779Z,23.68
2024-04-30T10:58:58.779Z,23.72
2024-04-30T10:59:59.032Z,23.56
2024-04-30T11:00:58.826Z,23.87
2024-04-30T11:01:58.793Z,23.79
2024-04-30T11:02:58.851Z,23.68
2024-04-30T11:03:58.823Z,23.87
2024-04-30T11:04:59.077Z,23.93
2024-04-30T11:05:58.938Z,23.90
2024-04-30T11:06:58.990Z,23.76
2024-04-30T11:07:58.977Z,23.80
2024-04-30T11:08:58.999Z,23.97
2024-04-30T11:09:59.045Z,24.06
2024-04-30T11:10:59.124Z,24.33
2024-04-30T11:11:59.207Z,23.85
2024-04-30T11:12:59.114Z,23.67
2024-04-30T11:14:00.833Z,23.83
2024-04-30T11:14:59.188Z,24.02
2024-04-30T11:16:07.419Z,24.21
2024-04-30T11:17:00.267Z,24.13
2024-04-30T11:17:59.419Z,23.70
2024-04-30T11:18:59.249Z,23.96
2024-04-30T11:19:59.601Z,23.94
2024-04-30T11:20:59.277Z,23.85
2024-04-30T11:21:59.297Z,23.93
2024-04-30T11:22:59.265Z,23.85
2024-04-30T11:23:59.228Z,23.91
2024-04-30T11:24:59.226Z,23.94
2024-04-30T11:25:59.305Z,24.14
2024-04-30T11:26:59.250Z,24.07
2024-04-30T11:27:59.362Z,23.91
2024-04-30T11:29:09.554Z,24.06
2024-04-30T11:30:00.627Z,24.10
2024-04-30T11:30:59.239Z,23.97
2024-04-30T11:31:59.287Z,23.92
2024-04-30T11:32:59.301Z,23.81
2024-04-30T11:33:59.270Z,23.92
2024-04-30T11:34:59.251Z,24.10
2024-04-30T11:35:59.271Z,24.06
2024-04-30T11:36:59.260Z,23.89
2024-04-30T11:37:59.558Z,24.02
2024-04-30T11:38:59.284Z,23.93
2024-04-30T11:39:59.623Z,24.18
2024-04-30T11:40:59.318Z,23.95
2024-04-30T11:42:07.003Z,24.04
2024-04-30T11:43:00.308Z,23.99
2024-04-30T11:43:59.267Z,23.69
2024-04-30T11:44:59.593Z,23.82
2024-04-30T11:46:00.058Z,23.80
2024-04-30T11:46:59.308Z,23.93
2024-04-30T11:47:59.343Z,24.08
2024-04-30T11:48:59.317Z,24.11
2024-04-30T11:49:59.591Z,24.16
2024-04-30T11:50:59.299Z,24.19
2024-04-30T11:51:59.324Z,24.19
2024-04-30T11:52:59.383Z,24.15
2024-04-30T11:53:59.299Z,24.25
2024-04-30T11:54:59.306Z,24.29
2024-04-30T11:55:59.313Z,24.30
2024-04-30T11:56:59.388Z,24.25
2024-04-30T11:57:59.356Z,24.28
2024-04-30T11:58:59.439Z,24.28
2024-04-30T11:59:59.582Z,24.28
2024-04-30T12:00:59.616Z,24.21
2024-04-30T12:01:59.648Z,24.26
2024-04-30T12:02:59.649Z,24.22
2024-04-30T12:03:59.665Z,24.24
2024-04-30T12:04:59.841Z,24.26
2024-04-30T12:05:59.785Z,24.27
2024-04-30T12:06:59.795Z,24.26
2024-04-30T12:07:59.837Z,24.25
2024-04-30T12:08:59.900Z,24.31
2024-04-30T12:09:59.955Z,24.31
2024-04-30T12:11:00.131Z,24.32
2024-04-30T12:12:00.032Z,24.33
2024-04-30T12:13:00.084Z,24.35
2024-04-30T12:14:00.151Z,24.38
2024-04-30T12:15:00.185Z,24.41
2024-04-30T12:16:00.270Z,24.41
2024-04-30T12:17:00.388Z,24.43
2024-04-30T12:18:00.462Z,24.44
2024-04-30T12:19:00.447Z,24.48
2024-04-30T12:20:00.348Z,24.50
2024-04-30T12:21:00.401Z,24.50
2024-04-30T12:22:00.407Z,24.54
2024-04-30T12:23:00.465Z,24.54
2024-04-30T12:24:00.465Z,24.57
2024-04-30T12:25:00.626Z,24.59
2024-04-30T12:26:00.548Z,24.62
2024-04-30T12:27:00.571Z,24.63
2024-04-30T12:28:00.617Z,25.01
2024-04-30T12:29:00.674Z,24.64
2024-04-30T12:30:00.706Z,24.67
2024-04-30T12:31:00.760Z,24.75
2024-04-30T12:32:00.796Z,24.75
2024-04-30T12:33:00.960Z,24.99
2024-04-30T12:34:00.919Z,25.34
2024-04-30T12:35:00.917Z,25.00
2024-04-30T12:36:00.958Z,24.96
2024-04-30T12:37:01.006Z,25.09
2024-04-30T12:38:01.073Z,25.14
2024-04-30T12:39:01.157Z,25.25
2024-04-30T12:40:03.588Z,25.44
2024-04-30T12:41:01.158Z,25.43
2024-04-30T12:42:01.186Z,25.40
2024-04-30T12:43:01.174Z,25.47
2024-04-30T12:44:01.185Z,25.63
2024-04-30T12:45:01.201Z,25.68
2024-04-30T12:46:04.718Z,25.72
2024-04-30T12:47:01.165Z,26.00
2024-04-30T12:48:01.337Z,26.01
2024-04-30T12:49:01.198Z,25.98
2024-04-30T12:50:01.185Z,25.99
2024-04-30T12:51:01.155Z,26.13
2024-04-30T12:52:01.238Z,26.20
2024-04-30T12:53:01.193Z,26.24